Time;durP1;ratioP1;P1;durP2;ratioP2;P2;SDS_P1;SDS_P2;PMS_P1;PMS_P2;Temp;Humidity;BMP_temperature;BMP_pressure;BME280_temperature;BME280_humidity;BME280_pressure;Samples;Min_cycle;Max_cycle;Signal;HPM_P1;HPM_P2
2021/10/02 00:31:21;;;;;;;6.10;4.65;;;12.90;99.90;;;;;;5071338;28;20120;-80
2021/10/02 00:44:44;;;;;;;7.00;4.05;;;12.80;99.90;;;;;;5065750;28;20044;-77
2021/10/02 00:47:12;;;;;;;6.38;3.40;;;12.70;99.90;;;;;;5070104;28;20040;-78
2021/10/02 00:49:40;;;;;;;6.90;3.92;;;12.70;99.90;;;;;;5067002;28;20038;-78
2021/10/02 00:52:17;;;;;;;11.95;4.88;;;12.70;99.90;;;;;;5042652;28;20052;-77
2021/10/02 00:54:43;;;;;;;5.82;4.20;;;12.70;99.90;;;;;;5065045;28;20045;-78
2021/10/02 00:57:10;;;;;;;7.45;3.70;;;12.70;99.90;;;;;;5057683;28;20053;-78
2021/10/02 00:59:37;;;;;;;6.35;3.40;;;12.70;99.90;;;;;;5062366;28;20052;-77
2021/10/02 01:02:07;;;;;;;8.55;4.85;;;12.70;99.90;;;;;;5065398;28;20041;-78
2021/10/02 01:05:11;;;;;;;11.15;3.45;;;12.70;99.90;;;;;;5061928;28;20095;-78
2021/10/02 01:08:19;;;;;;;6.40;4.75;;;12.60;99.90;;;;;;5059250;28;20044;-78
2021/10/02 01:10:56;;;;;;;6.70;4.15;;;12.60;99.90;;;;;;5042366;28;20056;-77
2021/10/02 01:13:33;;;;;;;4.68;3.83;;;12.60;99.90;;;;;;5056662;28;20510;-78
2021/10/02 01:16:20;;;;;;;6.80;5.30;;;12.60;99.90;;;;;;5053200;28;20052;-78
2021/10/02 01:19:13;;;;;;;7.28;4.78;;;12.60;99.90;;;;;;5046792;28;20040;-78
2021/10/02 01:21:58;;;;;;;6.20;5.35;;;12.60;99.90;;;;;;5052407;28;20086;-78
2021/10/02 01:24:23;;;;;;;6.50;4.78;;;12.60;99.90;;;;;;5059839;28;20101;-77
2021/10/02 01:26:55;;;;;;;6.30;4.60;;;12.60;99.90;;;;;;5059435;28;20045;-77
2021/10/02 01:29:21;;;;;;;6.28;3.47;;;12.60;99.90;;;;;;5049704;28;20041;-78
2021/10/02 01:32:07;;;;;;;8.10;3.78;;;12.60;99.90;;;;;;5058628;28;20044;-78
2021/10/02 01:34:58;;;;;;;5.90;4.22;;;12.60;99.90;;;;;;5052142;28;20132;-77
2021/10/02 01:37:41;;;;;;;5.57;4.60;;;12.50;99.90;;;;;;5044696;28;20040;-78
2021/10/02 01:47:08;;;;;;;5.80;3.95;;;12.50;99.90;;;;;;5055239;28;20084;-77
2021/10/02 01:48:39;;;;;;;5.43;3.55;;;12.50;99.90;;;;;;5059316;28;20124;-77
2021/10/02 01:51:06;;;;;;;9.45;6.15;;;12.40;99.90;;;;;;5051258;28;20045;-77
2021/10/02 01:53:34;;;;;;;7.40;5.05;;;12.30;99.90;;;;;;5053798;28;20048;-78
2021/10/02 01:56:09;;;;;;;4.30;3.17;;;12.30;99.90;;;;;;5050784;28;20393;-77
2021/10/02 01:58:36;;;;;;;9.55;4.82;;;12.20;99.90;;;;;;5056926;28;20118;-78
2021/10/02 02:01:04;;;;;;;6.78;4.47;;;12.20;99.90;;;;;;5051302;28;20045;-77
2021/10/02 02:03:33;;;;;;;8.23;5.03;;;12.20;99.90;;;;;;5060410;28;20060;-77
2021/10/02 02:06:01;;;;;;;10.10;4.95;;;12.10;99.90;;;;;;5064422;28;20101;-78
2021/10/02 02:08:28;;;;;;;8.63;4.30;;;12.00;99.90;;;;;;5070557;28;20052;-77
2021/10/02 02:10:55;;;;;;;7.57;4.03;;;12.00;99.90;;;;;;5056714;28;20095;-78
2021/10/02 02:13:23;;;;;;;9.00;5.32;;;11.90;99.90;;;;;;5050495;28;20134;-78
2021/10/02 02:15:51;;;;;;;8.48;5.22;;;11.90;99.90;;;;;;5050800;28;20135;-78
2021/10/02 02:18:21;;;;;;;10.68;5.20;;;11.90;99.90;;;;;;5056058;28;20438;-78
2021/10/02 02:21:09;;;;;;;6.30;4.90;;;11.90;99.90;;;;;;5051013;28;20139;-78
2021/10/02 02:23:35;;;;;;;8.95;5.25;;;12.00;99.90;;;;;;5061896;28;20044;-77
2021/10/02 02:26:04;;;;;;;13.27;5.45;;;12.00;99.90;;;;;;5058094;28;20044;-77
2021/10/02 02:28:31;;;;;;;11.07;5.78;;;12.10;99.90;;;;;;5058898;28;20394;-77
2021/10/02 02:30:58;;;;;;;8.05;5.15;;;12.10;99.90;;;;;;5051307;28;20044;-77
2021/10/02 02:33:25;;;;;;;18.67;5.97;;;12.10;99.90;;;;;;5069958;28;20037;-77
2021/10/02 02:35:52;;;;;;;10.35;5.15;;;12.20;99.90;;;;;;5058774;28;20033;-78
2021/10/02 02:38:18;;;;;;;7.75;5.45;;;12.20;99.90;;;;;;5058372;28;20055;-78
2021/10/02 02:40:45;;;;;;;7.72;4.65;;;12.20;99.90;;;;;;5050028;28;20041;-78
2021/10/02 02:43:11;;;;;;;8.60;4.13;;;12.20;99.90;;;;;;5054072;28;20120;-78
2021/10/02 02:45:41;;;;;;;8.10;5.00;;;12.20;99.90;;;;;;5061207;28;20116;-78
2021/10/02 02:48:14;;;;;;;6.47;4.40;;;12.20;99.90;;;;;;5060777;28;20040;-78
2021/10/02 02:50:47;;;;;;;5.05;3.25;;;12.20;99.90;;;;;;5060887;28;20080;-78
2021/10/02 02:53:41;;;;;;;6.22;5.60;;;12.20;99.90;;;;;;5057008;28;20516;-78
2021/10/02 02:56:33;;;;;;;6.05;4.20;;;12.20;99.90;;;;;;5060116;28;20482;-78
2021/10/02 02:59:06;;;;;;;11.38;5.72;;;12.20;99.90;;;;;;5031069;28;20130;-78
2021/10/02 03:01:36;;;;;;;7.15;4.55;;;12.20;99.90;;;;;;5057898;28;20055;-78
2021/10/02 03:04:02;;;;;;;6.72;3.20;;;12.20;99.90;;;;;;5056546;28;20047;-77
2021/10/02 03:06:29;;;;;;;14.45;6.85;;;12.20;99.90;;;;;;5050499;28;20479;-77
2021/10/02 03:08:56;;;;;;;6.93;4.20;;;12.20;99.90;;;;;;5049779;28;20123;-78
2021/10/02 03:11:24;;;;;;;8.48;4.40;;;12.10;99.90;;;;;;5060072;28;20490;-78
2021/10/02 03:13:54;;;;;;;10.05;5.25;;;12.10;99.90;;;;;;5055306;28;20510;-77
2021/10/02 03:16:22;;;;;;;8.68;5.20;;;12.10;99.90;;;;;;5062477;28;20045;-77
2021/10/02 03:18:53;;;;;;;7.30;4.28;;;12.00;99.90;;;;;;5053931;28;20044;-77
2021/10/02 03:21:21;;;;;;;7.70;4.55;;;11.90;99.90;;;;;;5058027;28;20041;-77
2021/10/02 03:23:49;;;;;;;5.88;4.68;;;11.80;99.90;;;;;;5051509;28;20049;-77
2021/10/02 03:26:15;;;;;;;7.25;4.65;;;11.80;99.90;;;;;;5049637;28;20440;-77
2021/10/02 03:28:42;;;;;;;;;;;11.80;99.90;;;;;;5059664;28;20436;-77
2021/10/02 03:31:08;;;;;;;11.20;6.25;;;11.80;99.90;;;;;;5050160;28;19956;-78
2021/10/02 03:33:35;;;;;;;5.90;4.72;;;11.80;99.90;;;;;;5048433;28;20049;-78
2021/10/02 03:36:01;;;;;;;10.32;4.22;;;11.80;99.90;;;;;;5054181;28;20390;-78
2021/10/02 03:38:27;;;;;;;6.47;4.13;;;11.90;99.90;;;;;;5058347;28;20048;-77
2021/10/02 03:40:58;;;;;;;4.15;3.08;;;11.90;99.90;;;;;;5046518;28;20059;-78
2021/10/02 03:43:30;;;;;;;8.70;4.60;;;11.90;99.90;;;;;;5050445;28;20379;-77
2021/10/02 03:45:56;;;;;;;7.03;4.78;;;11.90;99.90;;;;;;5065049;28;20482;-77
2021/10/02 03:48:22;;;;;;;;;;;12.00;99.90;;;;;;5043516;28;20051;-78
2021/10/02 03:50:48;;;;;;;7.30;3.97;;;12.00;99.90;;;;;;5057605;28;20347;-78
2021/10/02 03:53:13;;;;;;;8.23;5.03;;;12.00;99.90;;;;;;5044556;28;20041;-77
2021/10/02 03:55:39;;;;;;;7.43;4.75;;;11.90;99.90;;;;;;5067739;28;20141;-77
2021/10/02 03:58:05;;;;;;;;;;;12.00;99.90;;;;;;5052992;28;20045;-77
2021/10/02 04:00:31;;;;;;;7.20;4.47;;;11.90;99.90;;;;;;5065883;28;19916;-78
2021/10/02 04:02:56;;;;;;;6.13;4.35;;;11.90;99.90;;;;;;5059656;28;20037;-78
2021/10/02 04:05:22;;;;;;;9.20;4.93;;;11.90;99.90;;;;;;5050531;28;20045;-78
2021/10/02 04:07:48;;;;;;;7.35;5.13;;;11.80;99.90;;;;;;5053105;28;20508;-78
2021/10/02 04:10:14;;;;;;;6.97;3.53;;;11.70;99.90;;;;;;5059336;28;20029;-79
2021/10/02 04:12:40;;;;;;;11.55;4.43;;;11.70;99.90;;;;;;5070713;28;20094;-78
2021/10/02 04:15:06;;;;;;;6.68;4.47;;;11.70;99.90;;;;;;5062418;28;20078;-79
2021/10/02 04:17:32;;;;;;;;;;;11.70;99.90;;;;;;5060963;28;20076;-79
2021/10/02 04:19:58;;;;;;;4.78;3.63;;;11.70;99.90;;;;;;5081858;28;19916;-78
2021/10/02 04:22:24;;;;;;;12.18;5.53;;;11.70;99.90;;;;;;5073544;28;20044;-78
2021/10/02 04:24:49;;;;;;;7.75;4.80;;;11.70;99.90;;;;;;5066522;28;20524;-78
2021/10/02 04:27:15;;;;;;;9.90;5.88;;;11.70;99.90;;;;;;5057557;28;20059;-78
2021/10/02 04:29:41;;;;;;;9.98;5.38;;;11.80;99.90;;;;;;5065825;28;20105;-78
2021/10/02 04:32:07;;;;;;;5.35;4.38;;;11.80;99.90;;;;;;5077010;28;20079;-78
2021/10/02 04:34:33;;;;;;;;;;;11.80;99.90;;;;;;5060273;28;20402;-78
2021/10/02 04:37:00;;;;;;;7.60;4.05;;;11.80;99.90;;;;;;5055599;28;19927;-78
2021/10/02 04:39:26;;;;;;;10.35;4.55;;;11.80;99.90;;;;;;5061302;28;20882;-78
2021/10/02 04:41:52;;;;;;;10.95;5.30;;;11.90;99.90;;;;;;5060349;28;20116;-78
2021/10/02 04:44:19;;;;;;;9.93;4.32;;;11.90;99.90;;;;;;5067230;28;20482;-78
2021/10/02 04:46:44;;;;;;;;;;;11.90;99.90;;;;;;5072731;28;20212;-79
2021/10/02 04:49:10;;;;;;;9.32;4.82;;;11.90;99.90;;;;;;5062327;28;20007;-78
2021/10/02 04:51:37;;;;;;;9.88;5.30;;;11.90;99.90;;;;;;5064628;28;20052;-78
2021/10/02 04:54:03;;;;;;;8.80;4.18;;;11.90;99.90;;;;;;5042005;28;20131;-78
2021/10/02 04:56:29;;;;;;;8.70;5.00;;;11.90;99.90;;;;;;5060454;28;20600;-79
2021/10/02 04:58:55;;;;;;;9.82;7.47;;;11.90;99.90;;;;;;5066163;28;20056;-79
2021/10/02 05:01:20;;;;;;;12.82;6.05;;;11.90;99.90;;;;;;5065002;28;20118;-79
2021/10/02 05:03:47;;;;;;;8.13;5.43;;;11.90;99.90;;;;;;5055908;28;20041;-79
2021/10/02 05:06:13;;;;;;;8.32;5.75;;;11.90;99.90;;;;;;5057934;28;20055;-79
2021/10/02 05:08:39;;;;;;;8.68;5.03;;;11.90;99.90;;;;;;5055874;28;20403;-79
2021/10/02 05:11:05;;;;;;;;;;;11.80;99.90;;;;;;5039951;28;20375;-79
2021/10/02 05:13:32;;;;;;;9.13;5.57;;;11.80;99.90;;;;;;5053036;28;20389;-79
2021/10/02 05:15:58;;;;;;;6.95;4.60;;;11.80;99.90;;;;;;5060515;28;20424;-79
2021/10/02 05:18:24;;;;;;;;;;;11.80;99.90;;;;;;5044444;28;20040;-79
2021/10/02 05:20:50;;;;;;;9.00;4.97;;;11.80;99.90;;;;;;5051930;28;19920;-79
2021/10/02 05:23:15;;;;;;;11.90;5.85;;;11.70;99.90;;;;;;5059338;28;20119;-77
2021/10/02 05:25:41;;;;;;;9.82;4.82;;;11.70;99.90;;;;;;5071416;28;20382;-79
2021/10/02 05:28:07;;;;;;;5.90;4.72;;;11.70;99.90;;;;;;5052209;28;20072;-79
2021/10/02 05:30:33;;;;;;;7.18;4.60;;;11.70;99.90;;;;;;5060872;28;20425;-79
2021/10/02 05:32:58;;;;;;;6.63;4.63;;;11.80;99.90;;;;;;5053175;28;20036;-79
2021/10/02 05:35:24;;;;;;;5.00;4.18;;;11.70;99.90;;;;;;5028787;28;20040;-79
2021/10/02 05:37:50;;;;;;;;;;;11.80;99.90;;;;;;5057170;28;20041;-79
2021/10/02 05:40:17;;;;;;;4.80;4.30;;;11.80;99.90;;;;;;5060519;28;19916;-79
2021/10/02 05:42:42;;;;;;;10.82;5.32;;;11.80;99.90;;;;;;5070203;28;20036;-79
2021/10/02 05:45:08;;;;;;;10.45;4.70;;;11.80;99.90;;;;;;5064737;28;20036;-78
2021/10/02 05:47:34;;;;;;;6.43;4.85;;;11.80;99.90;;;;;;5062796;28;20473;-79
2021/10/02 05:50:00;;;;;;;7.75;5.68;;;11.80;99.90;;;;;;5062522;28;20119;-79
2021/10/02 05:52:27;;;;;;;9.27;5.68;;;11.80;99.90;;;;;;5058264;28;20056;-79
2021/10/02 05:54:53;;;;;;;11.30;5.30;;;11.80;99.90;;;;;;5062030;28;20040;-80
2021/10/02 05:57:18;;;;;;;10.05;5.25;;;11.90;99.90;;;;;;5061236;28;20065;-80
2021/10/02 05:59:46;;;;;;;16.13;5.57;;;11.90;99.90;;;;;;5044734;28;20052;-80
2021/10/02 06:02:12;;;;;;;7.13;5.30;;;11.90;99.90;;;;;;5060999;28;20041;-80
2021/10/02 06:04:38;;;;;;;8.75;5.38;;;11.90;99.90;;;;;;5046649;28;20434;-80
2021/10/02 06:07:03;;;;;;;9.13;3.95;;;11.90;99.90;;;;;;5062729;28;20076;-81
2021/10/02 06:09:29;;;;;;;7.63;5.20;;;11.90;99.90;;;;;;5061750;28;20053;-81
2021/10/02 06:11:55;;;;;;;9.35;4.38;;;11.90;99.90;;;;;;5058296;28;20092;-81
2021/10/02 06:14:21;;;;;;;9.27;5.13;;;11.90;99.90;;;;;;5061688;28;20038;-80
2021/10/02 06:16:46;;;;;;;9.60;5.07;;;11.90;99.90;;;;;;5061956;28;20063;-80
2021/10/02 06:19:12;;;;;;;8.50;3.60;;;11.90;99.90;;;;;;5057171;28;20039;-81
2021/10/02 06:21:38;;;;;;;4.78;3.53;;;11.90;99.90;;;;;;5044783;28;20401;-80
2021/10/02 06:24:04;;;;;;;5.05;4.47;;;11.90;99.90;;;;;;5060413;28;20053;-81
2021/10/02 06:26:32;;;;;;;7.45;4.88;;;11.90;99.90;;;;;;5057136;28;20035;-81
2021/10/02 06:28:58;;;;;;;5.78;4.07;;;11.90;99.90;;;;;;5053050;28;20048;-80
2021/10/02 06:31:24;;;;;;;8.88;4.78;;;11.90;99.90;;;;;;5059044;28;20557;-81
2021/10/02 06:33:50;;;;;;;5.22;4.70;;;11.90;99.90;;;;;;5056475;28;20098;-81
2021/10/02 06:36:16;;;;;;;6.72;4.18;;;11.90;99.90;;;;;;5055652;28;20041;-80
2021/10/02 06:38:42;;;;;;;9.35;5.32;;;11.90;99.90;;;;;;5053595;28;20074;-81
2021/10/02 06:41:08;;;;;;;5.35;3.65;;;11.90;99.90;;;;;;5051767;28;20045;-79
2021/10/02 06:43:35;;;;;;;5.22;3.80;;;11.80;99.90;;;;;;5059542;28;20045;-79
2021/10/02 06:46:02;;;;;;;5.53;4.45;;;11.80;99.90;;;;;;5064396;28;20406;-82
2021/10/02 06:48:28;;;;;;;8.13;4.88;;;11.80;99.90;;;;;;5058349;28;20529;-79
2021/10/02 06:50:55;;;;;;;5.68;4.82;;;11.80;99.90;;;;;;5061145;28;20119;-79
2021/10/02 06:53:21;;;;;;;12.95;4.15;;;11.80;99.90;;;;;;5060528;28;20127;-79
2021/10/02 06:55:47;;;;;;;5.88;4.07;;;11.70;99.90;;;;;;5063790;28;20127;-79
2021/10/02 06:58:13;;;;;;;;;;;11.70;99.90;;;;;;5064748;28;20534;-79
2021/10/02 07:00:39;;;;;;;8.80;5.95;;;11.70;99.90;;;;;;5059044;28;19963;-79
2021/10/02 07:03:06;;;;;;;7.80;5.38;;;11.70;99.90;;;;;;5056133;28;20065;-78
2021/10/02 07:05:32;;;;;;;6.10;4.40;;;11.70;99.90;;;;;;5053921;28;20040;-79
2021/10/02 07:07:58;;;;;;;6.35;4.65;;;11.70;99.90;;;;;;5069539;28;20053;-79
2021/10/02 07:10:24;;;;;;;10.25;6.05;;;11.80;99.90;;;;;;5069806;28;20048;-79
2021/10/02 07:12:52;;;;;;;6.00;4.15;;;11.80;99.90;;;;;;5051594;28;20037;-79
2021/10/02 07:15:18;;;;;;;9.23;4.50;;;11.90;99.90;;;;;;5065977;28;20040;-79
2021/10/02 07:17:44;;;;;;;8.73;4.95;;;11.90;99.90;;;;;;5064598;28;20470;-79
2021/10/02 07:20:14;;;;;;;8.63;4.50;;;11.90;99.90;;;;;;5055854;28;20094;-79
2021/10/02 07:22:41;;;;;;;10.95;5.88;;;11.90;99.90;;;;;;5057056;28;20496;-79
2021/10/02 07:25:10;;;;;;;9.57;5.20;;;11.90;99.90;;;;;;5055513;28;20116;-79
2021/10/02 07:27:36;;;;;;;7.68;5.65;;;12.00;99.90;;;;;;5059182;28;20051;-79
2021/10/02 07:30:03;;;;;;;9.85;5.35;;;12.10;99.90;;;;;;5043983;28;20037;-79
2021/10/02 07:32:28;;;;;;;8.90;5.93;;;12.00;99.90;;;;;;5060530;28;20394;-79
2021/10/02 07:34:54;;;;;;;8.80;3.88;;;12.10;99.90;;;;;;5041216;28;20052;-79
2021/10/02 07:37:20;;;;;;;5.82;4.32;;;12.10;99.90;;;;;;5058891;28;20049;-79
2021/10/02 07:39:46;;;;;;;15.30;5.47;;;12.20;99.90;;;;;;5051281;28;20063;-80
2021/10/02 07:42:12;;;;;;;13.93;5.03;;;12.40;99.90;;;;;;5059950;28;20099;-79
2021/10/02 07:44:41;;;;;;;4.63;3.33;;;12.50;99.90;;;;;;5063002;28;20116;-79
2021/10/02 07:47:08;;;;;;;4.80;3.67;;;12.60;99.90;;;;;;5050396;28;20076;-79
2021/10/02 07:49:35;;;;;;;6.47;4.90;;;12.70;99.90;;;;;;5054682;28;20082;-79
2021/10/02 07:52:01;;;;;;;5.18;3.80;;;12.70;99.90;;;;;;5059881;28;20391;-79
2021/10/02 07:54:27;;;;;;;6.95;4.60;;;12.80;99.90;;;;;;5070738;28;20508;-79
2021/10/02 07:56:56;;;;;;;7.25;3.65;;;12.90;99.90;;;;;;5074136;28;20092;-80
2021/10/02 07:59:23;;;;;;;12.52;5.50;;;12.90;99.90;;;;;;5055767;28;20052;-79
2021/10/02 08:01:49;;;;;;;11.65;5.72;;;13.00;99.90;;;;;;5060980;28;20072;-79
2021/10/02 08:04:15;;;;;;;13.27;5.88;;;13.00;99.90;;;;;;5057311;28;20052;-80
2021/10/02 08:06:41;;;;;;;8.20;5.00;;;13.10;99.90;;;;;;5050105;28;20474;-80
2021/10/02 08:09:07;;;;;;;12.73;5.85;;;13.20;99.90;;;;;;5065997;28;20071;-80
2021/10/02 08:11:33;;;;;;;11.48;6.30;;;13.30;99.90;;;;;;5065046;28;20049;-80
2021/10/02 08:13:59;;;;;;;9.35;5.38;;;13.40;99.90;;;;;;5062770;28;20071;-80
2021/10/02 08:16:30;;;;;;;7.97;5.22;;;13.40;99.90;;;;;;5054269;28;20084;-80
2021/10/02 08:18:58;;;;;;;16.20;6.20;;;13.40;99.90;;;;;;5053237;28;20036;-79
2021/10/02 08:21:25;;;;;;;16.15;5.97;;;13.40;99.90;;;;;;5049785;28;20068;-80
2021/10/02 08:23:52;;;;;;;6.78;4.32;;;13.50;99.90;;;;;;5061938;28;20041;-80
2021/10/02 08:26:19;;;;;;;6.80;4.75;;;13.40;99.90;;;;;;5059571;28;20087;-80
2021/10/02 08:28:47;;;;;;;7.97;5.25;;;13.50;99.90;;;;;;5062017;28;20083;-80
2021/10/02 08:31:15;;;;;;;10.32;5.35;;;13.60;99.90;;;;;;5065029;28;20036;-80
2021/10/02 08:33:41;;;;;;;9.77;5.05;;;13.70;99.90;;;;;;5054220;28;20041;-79
2021/10/02 08:36:07;;;;;;;;;;;13.80;99.90;;;;;;5049057;28;20535;-80
2021/10/02 08:38:33;;;;;;;16.92;5.95;;;13.90;99.90;;;;;;5060373;28;20354;-80
2021/10/02 08:41:01;;;;;;;10.45;5.45;;;14.10;99.90;;;;;;5053652;28;20052;-80
2021/10/02 08:43:27;;;;;;;8.70;5.50;;;14.30;99.90;;;;;;5054983;28;20119;-80
2021/10/02 08:45:53;;;;;;;10.48;5.78;;;14.50;99.90;;;;;;5064726;28;20523;-80
2021/10/02 08:48:19;;;;;;;7.78;5.45;;;14.70;99.90;;;;;;5034089;28;20049;-79
2021/10/02 08:50:47;;;;;;;13.50;6.13;;;14.70;99.90;;;;;;5065757;28;20049;-79
2021/10/02 08:53:14;;;;;;;13.88;5.85;;;14.70;99.90;;;;;;5053046;28;20921;-79
2021/10/02 08:55:41;;;;;;;9.48;4.93;;;14.50;99.90;;;;;;5064897;28;20045;-78
2021/10/02 08:58:07;;;;;;;5.00;4.03;;;14.40;99.90;;;;;;5062952;28;20596;-79
2021/10/02 09:00:34;;;;;;;6.40;5.05;;;14.30;99.90;;;;;;5069843;28;20044;-78
2021/10/02 09:03:00;;;;;;;10.55;5.80;;;14.30;99.90;;;;;;5057440;28;20036;-79
2021/10/02 09:05:26;;;;;;;;;;;14.30;99.90;;;;;;5063525;28;20076;-79
2021/10/02 09:07:55;;;;;;;7.17;5.83;;;14.20;99.90;;;;;;5066417;28;19999;-79
2021/10/02 09:10:22;;;;;;;8.07;6.03;;;14.10;99.90;;;;;;5081188;28;20397;-79
2021/10/02 09:12:49;;;;;;;6.72;3.92;;;14.10;99.90;;;;;;5052708;28;20048;-79
2021/10/02 09:15:16;;;;;;;9.00;4.97;;;14.10;99.90;;;;;;5065604;28;20075;-78
2021/10/02 09:17:42;;;;;;;6.45;4.55;;;14.20;99.90;;;;;;5057782;28;20485;-78
2021/10/02 09:20:10;;;;;;;7.30;4.05;;;14.20;99.90;;;;;;5058065;28;20037;-79
2021/10/02 09:22:36;;;;;;;7.20;4.80;;;14.30;99.90;;;;;;5057805;28;20439;-79
2021/10/02 09:25:06;;;;;;;10.10;4.75;;;14.50;99.90;;;;;;5056598;28;20538;-79
2021/10/02 09:27:34;;;;;;;7.65;4.25;;;14.70;99.90;;;;;;5064268;28;20436;-79
2021/10/02 09:30:01;;;;;;;4.85;2.83;;;15.00;99.90;;;;;;5051827;28;20037;-79
2021/10/02 09:32:30;;;;;;;7.03;3.72;;;15.10;99.90;;;;;;5051873;28;20045;-78
2021/10/02 09:34:59;;;;;;;5.70;3.15;;;15.20;99.90;;;;;;5050734;28;20048;-79
2021/10/02 09:37:33;;;;;;;7.63;4.43;;;15.30;99.90;;;;;;5057885;28;20041;-78
2021/10/02 09:40:17;;;;;;;7.13;3.30;;;15.40;99.90;;;;;;5042181;28;20037;-79
2021/10/02 09:42:53;;;;;;;5.13;3.58;;;15.50;99.90;;;;;;5052169;28;20437;-79
2021/10/02 09:45:22;;;;;;;4.28;3.72;;;15.60;99.90;;;;;;5062116;28;20052;-79
2021/10/02 09:47:53;;;;;;;6.07;3.28;;;15.70;99.90;;;;;;5051901;28;20056;-78
2021/10/02 09:50:25;;;;;;;5.55;3.45;;;15.70;99.90;;;;;;5059308;28;20079;-78
2021/10/02 09:52:56;;;;;;;4.65;2.90;;;15.70;99.90;;;;;;5055678;28;20049;-79
2021/10/02 09:55:24;;;;;;;4.00;2.40;;;15.50;99.90;;;;;;5046256;28;20055;-78
2021/10/02 09:57:57;;;;;;;7.18;4.13;;;15.40;99.90;;;;;;5054253;28;20438;-78
2021/10/02 10:00:26;;;;;;;5.32;3.10;;;15.40;99.90;;;;;;5054983;28;20047;-77
2021/10/02 10:02:54;;;;;;;6.20;3.97;;;15.30;99.90;;;;;;5056589;28;20071;-79
2021/10/02 10:05:25;;;;;;;6.25;2.97;;;15.30;99.90;;;;;;5070659;28;20045;-78
2021/10/02 10:08:02;;;;;;;5.43;2.88;;;15.30;99.90;;;;;;5051955;28;20072;-78
2021/10/02 10:10:35;;;;;;;5.15;3.78;;;15.20;99.90;;;;;;5068957;28;20051;-78
2021/10/02 10:13:11;;;;;;;5.07;3.78;;;15.20;99.90;;;;;;5051529;28;20044;-78
2021/10/02 10:15:42;;;;;;;5.18;3.00;;;15.40;99.90;;;;;;5053395;28;20042;-77
2021/10/02 10:18:14;;;;;;;5.00;2.88;;;15.40;99.90;;;;;;5044285;28;20041;-77
2021/10/02 10:20:39;;;;;;;4.60;3.00;;;15.50;99.90;;;;;;5069158;28;20148;-77
2021/10/02 10:23:07;;;;;;;5.53;3.58;;;15.60;99.90;;;;;;5072529;28;20169;-77
2021/10/02 10:25:33;;;;;;;5.60;3.17;;;15.70;99.90;;;;;;5052978;28;20421;-78
2021/10/02 10:28:00;;;;;;;;;;;15.80;99.90;;;;;;5035705;28;20053;-78
2021/10/02 10:30:28;;;;;;;5.63;4.00;;;15.90;99.90;;;;;;5049795;28;19999;-76
2021/10/02 10:32:56;;;;;;;4.75;3.28;;;16.00;99.90;;;;;;5051112;28;20124;-78
2021/10/02 10:35:22;;;;;;;7.38;4.13;;;16.10;99.90;;;;;;5050196;28;20549;-77
2021/10/02 10:37:48;;;;;;;4.93;3.25;;;16.20;99.90;;;;;;5050918;28;20390;-78
2021/10/02 10:40:14;;;;;;;4.68;3.30;;;16.30;99.90;;;;;;5039195;28;20036;-78
2021/10/02 10:42:39;;;;;;;;;;;16.40;99.90;;;;;;5043236;28;20047;-79
2021/10/02 10:45:06;;;;;;;7.53;3.72;;;16.30;99.90;;;;;;5063129;28;20270;-77
2021/10/02 10:47:32;;;;;;;5.97;4.00;;;16.30;99.90;;;;;;5055042;28;20052;-77
2021/10/02 10:49:58;;;;;;;10.68;4.15;;;16.40;99.90;;;;;;5054778;28;20041;-77
2021/10/02 10:52:24;;;;;;;5.25;2.70;;;16.50;99.90;;;;;;5058104;28;20406;-78
2021/10/02 10:54:52;;;;;;;5.03;2.80;;;16.70;99.90;;;;;;5058487;28;20415;-78
2021/10/02 10:57:38;;;;;;;3.80;2.47;;;16.90;99.90;;;;;;5060330;28;20061;-77
2021/10/02 11:00:14;;;;;;;9.48;3.42;;;16.90;99.90;;;;;;5062292;28;20474;-77
2021/10/02 11:02:42;;;;;;;2.75;2.47;;;16.80;99.90;;;;;;5053357;28;20405;-77
2021/10/02 11:05:46;;;;;;;6.55;3.33;;;16.60;99.90;;;;;;5050516;28;20056;-77
2021/10/02 11:08:16;;;;;;;5.68;2.05;;;16.40;99.90;;;;;;4990689;28;20077;-77
2021/10/02 11:10:42;;;;;;;3.03;2.50;;;16.30;99.90;;;;;;5054205;28;20053;-77
2021/10/02 11:13:09;;;;;;;3.83;2.33;;;16.30;99.90;;;;;;5059252;28;20043;-78
2021/10/02 11:15:35;;;;;;;4.22;2.38;;;16.40;99.90;;;;;;5038216;28;20120;-78
2021/10/02 11:18:01;;;;;;;2.63;1.50;;;16.50;99.90;;;;;;5059649;28;20533;-78
2021/10/02 11:20:32;;;;;;;;;;;16.60;99.90;;;;;;5056164;28;20045;-77
2021/10/02 11:23:35;;;;;;;2.20;1.45;;;16.60;99.90;;;;;;5050739;28;19928;-77
2021/10/02 11:26:25;;;;;;;7.63;3.05;;;16.60;99.90;;;;;;5055654;28;20433;-77
2021/10/02 11:29:00;;;;;;;3.25;2.28;;;16.60;99.90;;;;;;5055804;28;20047;-77
2021/10/02 11:31:26;;;;;;;5.93;3.13;;;16.50;99.90;;;;;;5054667;28;20040;-77
2021/10/02 11:33:56;;;;;;;4.85;1.98;;;16.50;99.90;;;;;;5038355;28;20049;-77
2021/10/02 11:36:27;;;;;;;3.38;1.85;;;16.40;99.90;;;;;;5056592;28;20091;-77
2021/10/02 11:39:11;;;;;;;3.92;2.13;;;16.40;99.90;;;;;;5054103;28;20037;-78
2021/10/02 11:41:53;;;;;;;2.70;1.52;;;16.50;99.90;;;;;;5069535;28;20045;-77
2021/10/02 11:44:35;;;;;;;3.45;2.53;;;16.50;99.90;;;;;;5053335;28;20129;-78
2021/10/02 11:47:25;;;;;;;3.63;2.08;;;16.50;99.90;;;;;;5054699;28;20049;-77
2021/10/02 11:50:06;;;;;;;2.17;1.60;;;16.50;99.90;;;;;;5056619;28;20079;-77
2021/10/02 11:52:33;;;;;;;2.30;1.50;;;16.50;99.90;;;;;;5060073;28;20136;-77
2021/10/02 11:55:33;;;;;;;2.08;1.63;;;16.50;99.90;;;;;;5056191;28;20115;-77
2021/10/02 11:58:10;;;;;;;1.92;1.30;;;16.50;99.90;;;;;;5054050;28;20506;-77
2021/10/02 12:00:51;;;;;;;3.50;2.10;;;16.50;99.90;;;;;;5059918;28;20032;-78
2021/10/02 12:03:28;;;;;;;2.53;1.70;;;16.50;99.90;;;;;;5059656;28;20486;-78
2021/10/02 12:05:57;;;;;;;5.30;2.30;;;16.50;99.90;;;;;;5073831;28;20504;-77
2021/10/02 12:08:23;;;;;;;2.63;1.70;;;16.40;99.90;;;;;;5070455;28;20032;-78
2021/10/02 12:10:57;;;;;;;2.20;1.38;;;16.40;99.90;;;;;;5058241;28;20036;-77
2021/10/02 12:13:45;;;;;;;3.63;2.00;;;16.40;99.90;;;;;;5056003;28;20040;-77
2021/10/02 12:16:24;;;;;;;1.30;1.02;;;16.40;99.90;;;;;;5059269;28;20052;-77
2021/10/02 12:19:00;;;;;;;2.50;1.88;;;16.50;99.90;;;;;;5070185;28;20064;-77
2021/10/02 12:21:30;;;;;;;2.38;1.58;;;16.50;99.90;;;;;;5075464;28;20550;-79
2021/10/02 12:24:16;;;;;;;5.80;1.55;;;16.50;99.90;;;;;;5063885;28;20040;-78
2021/10/02 12:26:59;;;;;;;1.85;1.17;;;16.50;99.90;;;;;;5058984;28;20053;-78
2021/10/02 12:29:44;;;;;;;2.45;1.88;;;16.40;99.90;;;;;;5055768;28;20063;-77
2021/10/02 12:32:11;;;;;;;1.83;1.33;;;16.40;99.90;;;;;;5067274;28;20045;-77
2021/10/02 12:34:42;;;;;;;1.55;1.08;;;16.40;99.90;;;;;;5053301;28;20164;-76
2021/10/02 12:37:11;;;;;;;2.90;1.42;;;16.40;99.90;;;;;;5070706;28;20080;-78
2021/10/02 12:39:37;;;;;;;5.38;1.65;;;16.40;99.90;;;;;;5056971;28;20093;-77
2021/10/02 12:42:04;;;;;;;1.88;1.15;;;16.30;99.90;;;;;;5053768;28;20557;-78
2021/10/02 12:44:32;;;;;;;1.20;1.10;;;16.30;99.90;;;;;;5051702;28;20055;-78
2021/10/02 12:47:00;;;;;;;2.95;1.48;;;16.30;99.90;;;;;;5055111;28;20440;-78
2021/10/02 12:49:27;;;;;;;1.55;1.38;;;16.30;99.90;;;;;;5052193;28;20041;-79
2021/10/02 12:51:54;;;;;;;1.33;0.90;;;16.30;99.90;;;;;;5061673;28;20075;-78
2021/10/02 12:54:25;;;;;;;1.50;1.23;;;16.30;99.90;;;;;;5054988;28;20127;-78
2021/10/02 12:57:13;;;;;;;2.65;1.83;;;16.30;99.90;;;;;;5064070;28;20048;-77
2021/10/02 12:59:42;;;;;;;1.45;1.20;;;16.20;99.90;;;;;;5068668;28;20052;-77
2021/10/02 13:02:08;;;;;;;1.40;1.20;;;16.20;99.90;;;;;;5060779;28;20049;-77
2021/10/02 13:04:35;;;;;;;1.80;1.42;;;16.20;99.90;;;;;;5043862;28;20036;-85
2021/10/02 13:07:01;;;;;;;1.15;1.05;;;16.20;99.90;;;;;;5066682;28;20048;-77
2021/10/02 13:09:27;;;;;;;2.63;1.58;;;16.20;99.90;;;;;;5066567;28;20051;-78
2021/10/02 13:11:53;;;;;;;4.25;1.67;;;16.20;99.90;;;;;;5052977;28;20041;-77
2021/10/02 13:14:37;;;;;;;1.58;1.20;;;16.20;99.90;;;;;;5055816;28;20060;-78
2021/10/02 13:17:08;;;;;;;1.65;1.20;;;16.20;99.90;;;;;;5052844;28;20074;-78
2021/10/02 13:19:34;;;;;;;2.22;1.55;;;16.20;99.90;;;;;;5063194;28;20053;-77
2021/10/02 13:22:16;;;;;;;3.38;1.23;;;16.10;99.90;;;;;;5066329;28;20049;-77
2021/10/02 13:25:09;;;;;;;1.23;1.10;;;16.20;99.90;;;;;;5052396;28;20044;-76
2021/10/02 13:27:37;;;;;;;4.43;1.65;;;16.20;99.90;;;;;;5053011;28;20516;-77
2021/10/02 13:30:16;;;;;;;2.22;1.95;;;16.30;99.90;;;;;;5055283;28;20051;-77
2021/10/02 13:32:58;;;;;;;0.95;0.85;;;16.30;99.90;;;;;;5055648;28;20049;-77
2021/10/02 13:35:25;;;;;;;5.90;1.20;;;16.30;99.90;;;;;;5061672;28;20535;-77
2021/10/02 13:37:51;;;;;;;3.00;1.38;;;16.30;99.90;;;;;;5062481;28;20040;-78
2021/10/02 13:40:26;;;;;;;2.15;1.52;;;16.30;99.90;;;;;;5059014;28;20052;-77
2021/10/02 13:42:53;;;;;;;3.65;1.42;;;16.30;99.90;;;;;;5069602;28;20062;-77
2021/10/02 13:45:31;;;;;;;3.47;1.52;;;16.20;99.90;;;;;;5067268;28;20059;-77
2021/10/02 13:48:04;;;;;;;1.67;1.13;;;16.20;99.90;;;;;;5063591;28;20102;-77
2021/10/02 13:50:29;;;;;;;2.08;1.50;;;16.20;99.90;;;;;;5065003;28;20072;-77